Time;durP1;ratioP1;P1;durP2;ratioP2;P2;SDS_P1;SDS_P2;PMS_P1;PMS_P2;Temp;Humidity;BMP_temperature;BMP_pressure;BME280_temperature;BME280_humidity;BME280_pressure;Samples;Min_cycle;Max_cycle;Signal;HPM_P1;HPM_P2
2022/05/03 00:02:23;;;;;;;10.23;6.40;;;6.60;82.20;;;;;;4825296;29;20172;-85
2022/05/03 00:05:04;;;;;;;9.87;5.57;;;6.60;81.80;;;;;;4825278;29;20211;-85
2022/05/03 00:07:38;;;;;;;5.83;5.30;;;6.60;81.20;;;;;;4825644;29;20271;-86
2022/05/03 00:10:12;;;;;;;6.33;4.80;;;6.50;81.50;;;;;;4825030;29;20680;-86
2022/05/03 00:13:00;;;;;;;6.50;5.40;;;6.50;81.60;;;;;;4825241;29;20175;-86
2022/05/03 00:15:27;;;;;;;6.37;5.43;;;6.50;81.60;;;;;;4824673;29;20215;-85
2022/05/03 00:17:53;;;;;;;7.37;5.47;;;6.50;81.70;;;;;;4825011;29;20177;-86
2022/05/03 00:20:20;;;;;;;7.23;5.60;;;6.40;82.30;;;;;;4825372;29;20210;-85
2022/05/03 00:22:46;;;;;;;5.53;5.03;;;6.40;82.10;;;;;;4824744;29;20661;-86
2022/05/03 00:25:12;;;;;;;7.50;6.27;;;6.30;82.00;;;;;;4808608;29;20191;-85
2022/05/03 00:27:38;;;;;;;7.03;5.77;;;6.30;81.70;;;;;;4824630;29;20199;-85
2022/05/03 00:30:05;;;;;;;7.60;5.77;;;6.30;81.90;;;;;;4824612;29;20199;-85
2022/05/03 00:32:31;;;;;;;7.27;5.37;;;6.30;82.20;;;;;;4824602;29;20263;-85
2022/05/03 00:35:00;;;;;;;5.87;5.27;;;6.30;82.20;;;;;;4824558;29;20184;-85
2022/05/03 00:37:29;;;;;;;7.07;5.73;;;6.30;81.90;;;;;;4824744;29;20702;-86
2022/05/03 00:39:54;;;;;;;7.53;6.00;;;6.30;81.50;;;;;;4808017;29;20223;-86
2022/05/03 00:42:33;;;;;;;7.17;5.80;;;6.30;81.50;;;;;;4808121;29;20172;-86
2022/05/03 00:45:09;;;;;;;6.00;5.40;;;6.30;82.70;;;;;;4824790;29;20224;-86
2022/05/03 00:47:54;;;;;;;5.67;5.07;;;6.20;83.10;;;;;;4808024;29;20227;-85
2022/05/03 00:50:39;;;;;;;6.70;5.20;;;6.20;83.80;;;;;;4807933;29;20240;-86
2022/05/03 00:53:16;;;;;;;8.03;5.07;;;6.20;84.10;;;;;;4824402;29;20183;-86
2022/05/03 00:55:41;;;;;;;11.63;5.70;;;6.20;83.70;;;;;;4807846;29;20238;-86
2022/05/03 00:58:30;;;;;;;6.37;5.70;;;6.10;83.50;;;;;;4824361;29;20237;-86
2022/05/03 01:01:23;;;;;;;6.10;5.50;;;6.00;84.10;;;;;;4824352;29;20203;-85
2022/05/03 01:04:11;;;;;;;5.43;4.93;;;6.10;84.20;;;;;;4789139;29;20195;-86
2022/05/03 01:07:05;;;;;;;8.33;5.30;;;6.10;83.60;;;;;;4807792;29;20266;-86
2022/05/03 01:09:40;;;;;;;9.87;4.83;;;6.00;83.40;;;;;;4802754;29;20705;-86
2022/05/03 01:12:14;;;;;;;6.10;5.03;;;6.00;83.50;;;;;;4824291;29;20179;-85
2022/05/03 01:15:04;;;;;;;8.30;5.30;;;5.80;83.40;;;;;;4807664;29;20194;-86
2022/05/03 01:17:59;;;;;;;6.97;5.40;;;5.70;84.30;;;;;;4807661;29;20194;-86
2022/05/03 01:20:50;;;;;;;6.63;5.03;;;5.70;85.20;;;;;;4810330;29;20213;-86
2022/05/03 01:23:37;;;;;;;5.60;5.00;;;5.80;84.90;;;;;;4808475;29;20184;-86
2022/05/03 01:26:17;;;;;;;6.43;5.33;;;5.80;84.80;;;;;;4808439;29;20666;-86
2022/05/03 01:29:18;;;;;;;7.07;5.27;;;5.80;84.30;;;;;;4828114;29;20257;-86
2022/05/03 01:31:45;;;;;;;8.43;5.73;;;5.90;84.10;;;;;;4811700;29;20183;-86
2022/05/03 01:34:13;;;;;;;7.03;4.97;;;5.90;83.60;;;;;;4828055;29;20217;-86
2022/05/03 01:37:26;;;;;;;7.03;5.50;;;5.90;83.30;;;;;;4811286;29;20298;-86
2022/05/03 01:40:15;;;;;;;7.70;6.00;;;5.90;83.00;;;;;;4825742;29;20242;-86
2022/05/03 01:43:07;;;;;;;6.17;5.20;;;5.80;83.20;;;;;;4811595;29;20262;-88
2022/05/03 01:45:41;;;;;;;9.27;6.20;;;5.80;83.10;;;;;;4827816;29;20632;-86
2022/05/03 01:51:26;;;;;;;9.30;6.00;;;5.80;82.90;;;;;;4827925;29;20609;-86
2022/05/03 01:54:27;;;;;;;9.77;6.33;;;5.70;83.40;;;;;;4811708;29;20258;-87
2022/05/03 01:57:11;;;;;;;7.33;6.03;;;5.60;84.10;;;;;;4813498;29;20235;-87
2022/05/03 02:00:15;;;;;;;8.23;6.47;;;5.70;84.30;;;;;;4827846;29;20263;-86
2022/05/03 02:02:53;;;;;;;6.30;5.70;;;5.70;83.80;;;;;;4807337;29;20650;-86
2022/05/03 02:05:26;;;;;;;7.43;6.50;;;5.80;83.40;;;;;;4807260;29;20211;-86
2022/05/03 02:07:55;;;;;;;8.13;6.43;;;5.80;82.80;;;;;;4803472;29;20195;-86
2022/05/03 02:11:01;;;;;;;7.23;6.23;;;5.70;82.50;;;;;;4810923;29;20217;-86
2022/05/03 02:16:54;;;;;;;7.50;6.57;;;5.70;82.40;;;;;;4827310;29;20206;-86
2022/05/03 02:19:46;;;;;;;9.50;6.90;;;5.70;82.50;;;;;;4827428;29;20203;-88
2022/05/03 02:22:30;;;;;;;8.30;6.67;;;5.40;84.10;;;;;;4827520;29;20248;-87
2022/05/03 02:25:15;;;;;;;9.17;6.57;;;5.50;84.70;;;;;;4810684;29;20765;-86
2022/05/03 02:27:47;;;;;;;7.80;6.23;;;5.60;84.40;;;;;;4827412;29;20203;-85
2022/05/03 02:30:14;;;;;;;7.13;5.90;;;5.60;84.10;;;;;;4810519;29;20301;-86
2022/05/03 02:32:53;;;;;;;9.57;5.70;;;5.60;83.90;;;;;;4810814;29;20229;-85
2022/05/03 02:35:21;;;;;;;8.17;6.40;;;5.50;83.70;;;;;;4810476;29;20210;-85
2022/05/03 02:37:56;;;;;;;7.97;6.10;;;5.50;84.30;;;;;;4827291;29;20263;-86
2022/05/03 02:40:25;;;;;;;7.23;6.20;;;5.50;84.80;;;;;;4826240;29;20214;-86
2022/05/03 02:42:51;;;;;;;13.70;8.73;;;5.40;85.30;;;;;;4827169;29;20529;-87
2022/05/03 02:45:18;;;;;;;7.73;5.77;;;5.40;85.60;;;;;;4826981;29;20193;-86
2022/05/03 02:47:43;;;;;;;9.77;5.93;;;5.40;85.60;;;;;;4826648;29;20198;-86
2022/05/03 02:50:13;;;;;;;9.43;5.67;;;5.30;85.50;;;;;;4826779;29;20203;-86
2022/05/03 02:52:53;;;;;;;7.23;5.53;;;5.40;85.50;;;;;;4827190;29;20190;-86
2022/05/03 02:55:40;;;;;;;8.13;5.90;;;5.40;85.20;;;;;;4810484;29;20219;-86
2022/05/03 02:58:17;;;;;;;6.30;5.40;;;5.40;85.00;;;;;;4826702;29;20212;-85
2022/05/03 03:04:16;;;;;;;13.97;5.80;;;5.40;86.20;;;;;;4827111;29;20255;-85
2022/05/03 03:06:43;;;;;;;9.43;6.27;;;5.50;87.10;;;;;;4810363;29;20190;-86
2022/05/03 03:09:21;;;;;;;10.83;7.20;;;5.50;87.90;;;;;;4826149;29;20290;-85
2022/05/03 03:12:24;;;;;;;12.07;6.83;;;5.60;88.20;;;;;;4826187;29;20169;-86
2022/05/03 03:14:59;;;;;;;8.10;6.80;;;5.70;88.30;;;;;;4826572;29;20170;-86
2022/05/03 03:17:28;;;;;;;11.17;7.10;;;5.60;88.30;;;;;;4810742;29;20289;-86
2022/05/03 03:20:04;;;;;;;9.43;8.03;;;5.70;88.30;;;;;;4826277;29;20335;-86
2022/05/03 03:22:34;;;;;;;9.17;8.00;;;5.80;88.20;;;;;;4809713;29;20667;-86
2022/05/03 03:25:02;;;;;;;11.73;7.80;;;5.80;88.00;;;;;;4809780;29;20170;-86
2022/05/03 03:27:31;;;;;;;11.73;7.83;;;5.80;88.00;;;;;;4826372;29;20187;-86
2022/05/03 03:29:58;;;;;;;12.90;8.43;;;5.80;88.30;;;;;;4825973;29;20216;-86
2022/05/03 03:32:25;;;;;;;12.03;9.20;;;5.90;88.00;;;;;;4809667;29;20258;-86
2022/05/03 03:34:54;;;;;;;11.67;8.97;;;5.90;88.40;;;;;;4825749;29;20230;-86
2022/05/03 03:37:24;;;;;;;14.43;10.00;;;6.00;88.90;;;;;;4826227;29;20174;-86
2022/05/03 03:39:49;;;;;;;13.03;10.97;;;5.90;89.20;;;;;;4825928;29;20213;-86
2022/05/03 03:42:15;;;;;;;11.63;10.17;;;6.00;89.30;;;;;;4810210;29;20235;-86
2022/05/03 03:44:41;;;;;;;16.57;12.00;;;6.10;89.70;;;;;;4809594;29;20187;-85
2022/05/03 03:47:07;;;;;;;20.10;12.23;;;6.30;90.10;;;;;;4825570;29;20268;-86
2022/05/03 03:49:34;;;;;;;20.30;12.33;;;6.40;90.10;;;;;;4825820;29;20202;-87
2022/05/03 03:52:01;;;;;;;18.67;12.77;;;6.60;90.40;;;;;;4809231;29;20189;-86
2022/05/03 03:54:27;;;;;;;17.30;12.97;;;6.70;90.50;;;;;;4825753;29;20192;-86
2022/05/03 03:56:54;;;;;;;18.80;13.70;;;6.80;90.60;;;;;;4825494;29;20207;-89
2022/05/03 03:59:20;;;;;;;21.03;14.10;;;6.80;90.60;;;;;;4809172;29;20563;-86
2022/05/03 04:01:48;;;;;;;19.13;13.60;;;6.90;90.60;;;;;;4809338;29;20234;-86
2022/05/03 04:04:16;;;;;;;20.60;14.67;;;7.00;90.50;;;;;;4809120;29;20690;-86
2022/05/03 04:06:41;;;;;;;19.40;15.30;;;7.00;90.50;;;;;;4809087;29;20238;-86
2022/05/03 04:09:07;;;;;;;22.47;15.20;;;7.10;90.60;;;;;;4825476;29;20204;-86
2022/05/03 04:11:46;;;;;;;18.27;14.57;;;7.10;90.80;;;;;;4825435;29;20706;-87
2022/05/03 04:14:12;;;;;;;23.20;15.87;;;7.30;90.80;;;;;;4809318;29;20267;-87
2022/05/03 04:16:38;;;;;;;23.97;16.60;;;7.30;90.80;;;;;;4808907;29;20218;-87
2022/05/03 04:19:04;;;;;;;20.13;15.10;;;7.30;90.70;;;;;;4808759;29;20295;-86
2022/05/03 04:21:29;;;;;;;23.37;16.00;;;7.40;90.80;;;;;;4808798;29;20217;-87
2022/05/03 04:23:55;;;;;;;23.83;17.13;;;7.40;90.80;;;;;;4825401;29;20274;-86
2022/05/03 04:26:20;;;;;;;19.80;15.07;;;7.50;90.80;;;;;;4808785;29;20190;-86
2022/05/03 04:28:46;;;;;;;24.07;16.33;;;7.50;90.80;;;;;;4825048;29;20211;-87
2022/05/03 04:31:12;;;;;;;22.10;16.77;;;7.50;90.70;;;;;;4808885;29;20557;-89
2022/05/03 04:33:37;;;;;;;21.77;17.83;;;7.50;90.70;;;;;;4808893;29;20188;-87
2022/05/03 04:36:04;;;;;;;20.77;16.73;;;7.50;90.70;;;;;;4824991;29;20208;-88
2022/05/03 04:38:29;;;;;;;24.97;18.30;;;7.60;90.70;;;;;;4825097;29;20196;-86
2022/05/03 04:41:02;;;;;;;25.07;18.40;;;7.60;90.70;;;;;;4825037;29;20207;-86
2022/05/03 04:43:28;;;;;;;35.07;18.27;;;7.60;90.70;;;;;;4824935;29;20180;-86
2022/05/03 04:45:54;;;;;;;22.97;17.90;;;7.70;90.60;;;;;;4825072;29;20245;-86
2022/05/03 04:48:20;;;;;;;20.53;17.50;;;7.70;90.60;;;;;;4825131;29;20188;-86
2022/05/03 04:50:47;;;;;;;25.83;19.10;;;7.70;90.60;;;;;;4824833;29;20191;-85
2022/05/03 04:53:13;;;;;;;25.00;18.57;;;7.70;90.50;;;;;;4824738;29;20668;-86
2022/05/03 04:55:39;;;;;;;23.63;18.60;;;7.80;90.60;;;;;;4808215;29;20239;-86
2022/05/03 04:58:05;;;;;;;26.93;18.73;;;7.80;90.50;;;;;;4808449;29;20188;-89
2022/05/03 05:00:30;;;;;;;21.80;17.37;;;7.80;90.40;;;;;;4808256;29;20214;-86
2022/05/03 05:02:56;;;;;;;29.13;22.13;;;7.90;90.40;;;;;;4829213;29;20751;-86
2022/05/03 05:05:21;;;;;;;23.20;17.30;;;7.90;90.40;;;;;;4814259;29;20191;-86
2022/05/03 05:07:47;;;;;;;28.57;19.67;;;8.00;90.40;;;;;;4814409;29;20188;-86
2022/05/03 05:10:26;;;;;;;24.43;18.20;;;8.00;90.50;;;;;;4814280;29;20230;-86
2022/05/03 05:12:53;;;;;;;24.47;18.23;;;8.00;90.50;;;;;;4814206;29;20215;-86
2022/05/03 05:15:18;;;;;;;27.77;18.83;;;8.10;90.50;;;;;;4830466;29;20265;-85
2022/05/03 05:17:44;;;;;;;28.77;19.07;;;8.20;90.50;;;;;;4830738;29;20184;-86
2022/05/03 05:20:10;;;;;;;24.47;17.67;;;8.20;90.50;;;;;;4830437;29;20614;-85
2022/05/03 05:22:36;;;;;;;23.37;17.63;;;8.20;90.50;;;;;;4830393;29;20207;-86
2022/05/03 05:25:01;;;;;;;22.53;16.60;;;8.20;90.40;;;;;;4831020;29;20271;-87
2022/05/03 05:27:27;;;;;;;26.53;20.33;;;8.30;90.50;;;;;;4814250;29;20184;-86
2022/05/03 05:29:52;;;;;;;27.63;18.80;;;8.30;90.50;;;;;;4830447;29;20251;-86
2022/05/03 05:32:18;;;;;;;23.47;19.07;;;8.30;90.40;;;;;;4830705;29;20180;-86
2022/05/03 05:34:44;;;;;;;26.17;19.63;;;8.30;90.40;;;;;;4830803;29;20179;-86
2022/05/03 05:37:10;;;;;;;24.53;19.87;;;8.40;90.30;;;;;;4830367;29;20588;-87
2022/05/03 05:39:35;;;;;;;24.70;19.67;;;8.40;90.20;;;;;;4830268;29;20200;-87
2022/05/03 05:42:01;;;;;;;27.33;19.77;;;8.40;90.10;;;;;;4814675;29;20176;-88
2022/05/03 05:44:30;;;;;;;24.03;18.67;;;8.50;90.00;;;;;;4830431;29;20183;-88
2022/05/03 05:46:56;;;;;;;27.60;18.77;;;8.50;89.90;;;;;;4814286;29;20236;-87
2022/05/03 05:49:21;;;;;;;30.13;19.33;;;8.50;89.80;;;;;;4830171;29;20203;-85
2022/05/03 05:51:47;;;;;;;27.50;21.17;;;8.60;89.70;;;;;;4814180;29;20188;-85
2022/05/03 05:54:13;;;;;;;22.23;18.83;;;8.60;89.60;;;;;;4830691;29;20188;-86
2022/05/03 05:56:42;;;;;;;25.43;19.67;;;8.70;89.60;;;;;;4813793;29;20204;-86
2022/05/03 05:59:08;;;;;;;24.43;17.77;;;8.70;89.40;;;;;;4830140;29;20206;-86
2022/05/03 06:01:38;;;;;;;28.53;20.27;;;8.70;89.30;;;;;;4830416;29;20738;-87
2022/05/03 06:04:05;;;;;;;24.07;19.30;;;8.80;89.30;;;;;;4830214;29;20184;-86
2022/05/03 06:06:32;;;;;;;23.63;19.30;;;8.80;89.30;;;;;;4830118;29;20557;-86
2022/05/03 06:09:04;;;;;;;21.60;17.60;;;8.80;88.90;;;;;;4830138;29;20199;-86
2022/05/03 06:11:30;;;;;;;30.47;18.27;;;8.80;88.90;;;;;;4830561;29;20581;-86
2022/05/03 06:13:55;;;;;;;23.37;17.33;;;8.80;88.90;;;;;;4827355;29;20318;-86
2022/05/03 06:16:21;;;;;;;24.70;18.13;;;8.80;88.90;;;;;;4827122;29;20204;-86
2022/05/03 06:18:47;;;;;;;25.90;18.67;;;8.80;88.80;;;;;;4827160;29;20569;-86
2022/05/03 06:21:13;;;;;;;24.57;19.00;;;8.90;88.80;;;;;;4827252;29;20180;-86
2022/05/03 06:23:39;;;;;;;22.90;19.37;;;8.90;88.90;;;;;;4826980;29;20177;-87
2022/05/03 06:26:05;;;;;;;26.40;19.10;;;8.80;89.20;;;;;;4827296;29;20188;-86
2022/05/03 06:28:34;;;;;;;25.23;19.03;;;8.80;89.30;;;;;;4827095;29;20220;-86
2022/05/03 06:31:00;;;;;;;24.57;19.00;;;8.80;89.40;;;;;;4810991;29;20244;-85
2022/05/03 06:33:26;;;;;;;25.23;18.70;;;8.80;89.50;;;;;;4827114;29;20179;-86
2022/05/03 06:35:52;;;;;;;25.03;20.03;;;8.80;89.70;;;;;;4826829;29;20638;-86
2022/05/03 06:38:17;;;;;;;27.20;20.40;;;8.90;89.70;;;;;;4810489;29;20176;-85
2022/05/03 06:40:43;;;;;;;21.37;18.53;;;8.90;89.70;;;;;;4810331;29;20618;-86
2022/05/03 06:43:09;;;;;;;23.03;19.57;;;9.00;89.70;;;;;;4826951;29;20549;-87
2022/05/03 06:45:35;;;;;;;26.30;19.43;;;9.00;89.80;;;;;;4826881;29;20180;-85
2022/05/03 06:48:01;;;;;;;33.33;21.77;;;9.00;89.90;;;;;;4826841;29;20553;-85
2022/05/03 06:50:29;;;;;;;29.10;21.77;;;8.90;90.10;;;;;;4826436;29;20204;-86
2022/05/03 06:52:55;;;;;;;31.83;21.30;;;9.00;90.20;;;;;;4826559;29;20180;-86
2022/05/03 06:55:21;;;;;;;28.80;21.77;;;9.00;90.30;;;;;;4810384;29;20208;-86
2022/05/03 06:57:48;;;;;;;32.73;24.23;;;9.00;90.60;;;;;;4826625;29;20188;-86
2022/05/03 07:00:14;;;;;;;36.20;23.87;;;9.00;90.80;;;;;;4826835;29;20203;-85
2022/05/03 07:02:39;;;;;;;32.73;22.77;;;9.00;90.90;;;;;;4826907;29;20176;-85
2022/05/03 07:05:06;;;;;;;33.60;24.07;;;9.00;91.10;;;;;;4826908;29;20177;-86
2022/05/03 07:07:33;;;;;;;31.67;22.70;;;9.00;91.20;;;;;;4826574;29;20250;-86
2022/05/03 07:10:01;;;;;;;29.03;23.13;;;9.10;91.20;;;;;;4810193;29;20222;-86
2022/05/03 07:12:27;;;;;;;34.30;22.23;;;9.10;91.30;;;;;;4827384;29;20655;-86
2022/05/03 07:14:58;;;;;;;30.23;22.47;;;9.10;91.30;;;;;;4827005;29;20172;-85
2022/05/03 07:22:52;;;;;;;32.60;22.40;;;9.00;91.50;;;;;;4826713;29;20176;-85
2022/05/03 07:25:18;;;;;;;31.73;23.90;;;9.10;91.70;;;;;;4826519;29;20188;-86
2022/05/03 07:27:47;;;;;;;32.20;23.57;;;9.10;91.80;;;;;;4826490;29;20211;-86
2022/05/03 07:30:16;;;;;;;30.77;21.70;;;9.10;91.90;;;;;;4810205;29;20300;-86
2022/05/03 07:32:43;;;;;;;32.50;21.43;;;9.20;91.90;;;;;;4826343;29;20192;-86
2022/05/03 07:35:09;;;;;;;28.80;17.67;;;9.30;91.90;;;;;;4826367;29;20184;-86
2022/05/03 07:37:35;;;;;;;24.60;11.80;;;9.30;91.80;;;;;;4826505;29;20238;-87
2022/05/03 07:40:01;;;;;;;25.30;10.83;;;9.30;91.70;;;;;;4826207;29;20290;-86
2022/05/03 07:42:27;;;;;;;22.97;10.20;;;9.30;91.30;;;;;;4826286;29;20204;-86
2022/05/03 07:44:52;;;;;;;26.50;11.13;;;9.30;90.60;;;;;;4826541;29;20184;-86
2022/05/03 07:47:18;;;;;;;32.07;11.50;;;9.40;90.20;;;;;;4826515;29;20213;-86
2022/05/03 07:49:43;;;;;;;32.90;11.77;;;9.50;89.80;;;;;;4826200;29;20209;-86
2022/05/03 07:52:09;;;;;;;30.53;10.97;;;9.60;89.40;;;;;;4826296;29;20261;-88
2022/05/03 07:54:35;;;;;;;15.00;6.70;;;9.70;89.10;;;;;;4826084;29;20199;-85
2022/05/03 07:57:00;;;;;;;14.90;6.00;;;9.60;87.40;;;;;;4826118;29;20218;-86
2022/05/03 07:59:26;;;;;;;20.00;5.53;;;9.60;86.10;;;;;;4826103;29;20706;-86
2022/05/03 08:01:55;;;;;;;20.90;5.73;;;9.60;85.20;;;;;;4809155;29;20184;-86
2022/05/03 08:04:21;;;;;;;21.80;6.50;;;9.70;84.70;;;;;;4825884;29;20184;-86
2022/05/03 08:06:47;;;;;;;21.10;6.83;;;9.80;84.30;;;;;;4809340;29;20303;-86
2022/05/03 08:09:13;;;;;;;18.57;6.30;;;9.80;83.30;;;;;;4825876;29;20317;-86
2022/05/03 08:11:38;;;;;;;29.17;6.93;;;10.00;83.30;;;;;;4826070;29;20218;-86
2022/05/03 08:14:04;;;;;;;19.60;6.13;;;10.00;82.70;;;;;;4809590;29;20222;-87
2022/05/03 08:16:31;;;;;;;24.43;6.40;;;10.20;82.60;;;;;;4826044;29;20203;-86
2022/05/03 08:18:57;;;;;;;25.17;7.00;;;10.40;82.80;;;;;;4825508;29;20687;-87
2022/05/03 08:21:23;;;;;;;14.10;5.50;;;10.70;82.90;;;;;;4826007;29;20705;-86
2022/05/03 08:23:48;;;;;;;19.47;5.67;;;10.70;81.00;;;;;;4826045;29;20184;-85
2022/05/03 08:26:15;;;;;;;19.10;4.77;;;10.30;79.50;;;;;;4825986;29;20188;-84
2022/05/03 08:28:41;;;;;;;16.97;5.20;;;10.60;79.80;;;;;;4825702;29;20208;-87
2022/05/03 08:31:10;;;;;;;14.60;4.67;;;10.60;78.00;;;;;;4809348;29;20238;-86
2022/05/03 08:33:36;;;;;;;19.83;4.73;;;10.80;78.50;;;;;;4825729;29;20568;-86
2022/05/03 08:36:01;;;;;;;17.50;4.30;;;10.90;77.60;;;;;;4825561;29;20212;-86
2022/05/03 08:43:58;;;;;;;20.83;4.20;;;11.20;76.60;;;;;;4826038;29;20172;-87
2022/05/03 08:46:24;;;;;;;19.03;4.67;;;11.50;76.40;;;;;;4825628;29;20655;-86
2022/05/03 08:49:02;;;;;;;17.53;4.13;;;11.40;74.50;;;;;;4825285;29;20203;-87
2022/05/03 08:51:29;;;;;;;17.77;5.07;;;11.80;74.60;;;;;;4825651;29;20580;-87
2022/05/03 08:53:56;;;;;;;22.00;4.57;;;11.90;74.00;;;;;;4826122;29;20192;-87
2022/05/03 08:56:21;;;;;;;17.73;4.87;;;11.80;73.00;;;;;;4825518;29;20207;-86
2022/05/03 08:58:47;;;;;;;27.63;6.57;;;11.70;73.30;;;;;;4825806;29;20565;-85
2022/05/03 09:01:13;;;;;;;18.93;4.33;;;11.90;72.80;;;;;;4825437;29;20263;-86
2022/05/03 09:03:39;;;;;;;13.27;4.27;;;11.90;71.30;;;;;;4825489;29;20176;-86
2022/05/03 09:06:05;;;;;;;17.00;3.53;;;11.90;72.70;;;;;;4825949;29;20237;-88
2022/05/03 09:08:32;;;;;;;15.13;3.80;;;12.00;70.50;;;;;;4825247;29;20215;-88
2022/05/03 09:10:59;;;;;;;10.47;2.97;;;12.10;71.40;;;;;;4825415;29;20184;-88
2022/05/03 09:13:26;;;;;;;14.03;3.57;;;12.00;71.50;;;;;;4828746;29;20192;-87
2022/05/03 09:15:56;;;;;;;12.53;3.43;;;12.30;71.50;;;;;;4825272;29;20207;-87
2022/05/03 09:18:31;;;;;;;14.00;3.80;;;12.30;70.30;;;;;;4809035;29;20176;-86
2022/05/03 09:24:01;;;;;;;12.13;3.57;;;12.20;71.00;;;;;;4787051;30;20276;-88
2022/05/03 09:26:31;;;;;;;12.07;3.27;;;12.50;69.60;;;;;;4818400;29;20204;-88
2022/05/03 09:29:08;;;;;;;20.17;3.63;;;12.60;68.50;;;;;;4808440;29;20244;-89
2022/05/03 09:31:40;;;;;;;15.70;3.60;;;12.40;69.40;;;;;;4825218;29;20174;-86
2022/05/03 09:34:25;;;;;;;12.67;3.23;;;12.70;70.10;;;;;;4825304;29;20180;-86
2022/05/03 09:37:09;;;;;;;19.97;4.70;;;12.90;69.30;;;;;;4824940;29;20228;-88
2022/05/03 09:39:42;;;;;;;11.57;3.07;;;13.20;66.00;;;;;;4824943;29;20224;-87
2022/05/03 09:42:16;;;;;;;7.83;2.90;;;13.20;67.00;;;;;;4808668;29;20268;-87
2022/05/03 09:44:55;;;;;;;10.97;3.13;;;13.20;65.60;;;;;;4824194;29;20184;-88
2022/05/03 09:47:23;;;;;;;9.87;3.13;;;13.30;64.70;;;;;;4825300;29;20207;-87
2022/05/03 09:49:49;;;;;;;10.37;3.03;;;13.50;64.50;;;;;;4828377;29;20667;-88
2022/05/03 09:52:40;;;;;;;15.10;3.57;;;12.50;64.50;;;;;;4812589;29;20199;-87
2022/05/03 09:55:10;;;;;;;13.17;3.03;;;12.70;67.10;;;;;;4812222;29;20180;-89
2022/05/03 09:57:38;;;;;;;7.63;2.30;;;12.50;66.60;;;;;;4827978;29;20180;-87
2022/05/03 10:00:10;;;;;;;14.00;3.30;;;12.70;65.10;;;;;;4828012;29;20211;-90
2022/05/03 10:02:40;;;;;;;12.27;2.70;;;13.10;65.50;;;;;;4827821;29;20219;-89
2022/05/03 10:05:07;;;;;;;10.97;3.40;;;13.20;64.70;;;;;;4812195;29;20200;-90
2022/05/03 10:07:35;;;;;;;7.33;2.87;;;13.00;65.40;;;;;;4811883;29;20180;-88
2022/05/03 10:10:07;;;;;;;16.03;3.20;;;13.50;64.80;;;;;;4828201;29;20228;-87
2022/05/03 10:12:35;;;;;;;9.87;2.20;;;13.50;63.80;;;;;;4828467;29;20628;-86
2022/05/03 10:15:02;;;;;;;12.73;2.93;;;13.40;61.70;;;;;;4812151;29;20184;-87
2022/05/03 10:20:38;;;;;;;9.63;2.60;;;13.40;62.60;;;;;;4827822;29;20632;-86
2022/05/03 10:23:16;;;;;;;16.43;3.67;;;13.10;62.50;;;;;;4827505;29;20176;-87
2022/05/03 10:25:42;;;;;;;13.43;3.87;;;13.10;62.80;;;;;;4827982;29;20164;-87
2022/05/03 10:28:08;;;;;;;10.87;2.93;;;13.90;62.80;;;;;;4827753;29;20240;-86
2022/05/03 10:30:34;;;;;;;17.03;3.10;;;13.80;62.00;;;;;;4827492;29;20207;-86
2022/05/03 10:33:23;;;;;;;10.67;3.00;;;13.60;61.20;;;;;;4827350;29;20259;-86
2022/05/03 10:35:50;;;;;;;13.63;3.27;;;13.30;60.70;;;;;;4827118;29;20697;-85
2022/05/03 10:38:43;;;;;;;10.73;2.57;;;13.00;63.50;;;;;;4826784;29;20259;-86
2022/05/03 10:41:10;;;;;;;15.80;3.50;;;13.50;61.40;;;;;;4826974;29;20203;-86
2022/05/03 10:43:37;;;;;;;17.13;3.57;;;13.50;62.20;;;;;;4827492;29;20177;-87
2022/05/03 10:46:12;;;;;;;12.90;3.30;;;14.00;63.70;;;;;;4827307;29;20192;-87
2022/05/03 10:48:43;;;;;;;6.83;2.37;;;14.20;60.30;;;;;;4827194;29;20211;-86
2022/05/03 10:51:10;;;;;;;15.20;3.37;;;14.30;61.20;;;;;;4827487;29;20168;-87
2022/05/03 10:53:38;;;;;;;9.17;2.50;;;14.70;61.00;;;;;;4827164;29;20184;-87
2022/05/03 10:56:12;;;;;;;13.47;3.40;;;14.40;57.90;;;;;;4826858;29;20203;-84
2022/05/03 10:58:43;;;;;;;13.97;2.73;;;13.50;61.00;;;;;;4827006;29;20199;-87
2022/05/03 11:01:23;;;;;;;12.83;3.07;;;14.00;59.60;;;;;;4825885;29;20168;-86
2022/05/03 11:03:52;;;;;;;7.97;2.60;;;13.70;60.40;;;;;;4826579;29;20236;-86
2022/05/03 11:06:26;;;;;;;15.43;3.13;;;13.30;58.90;;;;;;4826625;29;20223;-85
2022/05/03 11:11:44;;;;;;;9.83;3.20;;;14.20;60.30;;;;;;4826951;29;20176;-86
2022/05/03 11:14:19;;;;;;;6.67;2.30;;;14.70;57.20;;;;;;4826953;29;20252;-85
2022/05/03 11:16:50;;;;;;;10.00;2.87;;;14.70;57.60;;;;;;4826095;29;20608;-87
2022/05/03 11:19:19;;;;;;;15.37;3.53;;;14.20;58.70;;;;;;4826398;29;20216;-86
2022/05/03 11:21:47;;;;;;;10.67;2.50;;;14.00;60.00;;;;;;4826563;29;20618;-85
2022/05/03 11:24:22;;;;;;;8.07;2.67;;;13.80;58.90;;;;;;4826699;29;20204;-86
2022/05/03 11:26:50;;;;;;;13.73;3.10;;;14.30;58.40;;;;;;4826774;29;20179;-86
2022/05/03 11:29:16;;;;;;;14.27;2.77;;;14.60;57.10;;;;;;4826886;29;20257;-86
2022/05/03 11:31:47;;;;;;;12.93;2.73;;;14.90;56.30;;;;;;4826697;29;20196;-86
2022/05/03 11:34:12;;;;;;;12.07;3.20;;;15.00;56.30;;;;;;4826385;29;20271;-87
2022/05/03 11:36:41;;;;;;;8.23;2.83;;;15.20;56.00;;;;;;4826211;29;20286;-84
2022/05/03 11:39:08;;;;;;;14.03;3.70;;;15.00;56.30;;;;;;4826296;29;20231;-85
2022/05/03 11:41:35;;;;;;;9.73;2.67;;;14.50;57.00;;;;;;4826902;29;20252;-85
2022/05/03 11:44:01;;;;;;;12.40;3.87;;;14.90;55.10;;;;;;4825603;29;20536;-85
2022/05/03 11:46:26;;;;;;;15.33;3.17;;;14.40;56.90;;;;;;4825784;29;20256;-85
2022/05/03 11:48:56;;;;;;;14.17;2.80;;;14.50;56.90;;;;;;4825914;29;20208;-85
2022/05/03 11:57:40;;;;;;;14.57;3.60;;;15.20;55.40;;;;;;4805811;29;20268;-85
2022/05/03 12:00:11;;;;;;;12.43;2.43;;;15.20;55.60;;;;;;4825755;29;20235;-85
2022/05/03 12:02:46;;;;;;;10.33;2.90;;;15.50;55.20;;;;;;4808940;29;20648;-86
2022/05/03 12:05:18;;;;;;;15.40;3.00;;;15.80;53.80;;;;;;4825680;29;20191;-84
2022/05/03 12:07:51;;;;;;;12.73;2.83;;;15.50;54.80;;;;;;4825806;29;20168;-85
2022/05/03 12:10:30;;;;;;;21.27;3.22;;;15.30;53.20;;;;;;4825492;29;20229;-85
2022/05/03 12:13:16;;;;;;;7.83;2.40;;;15.60;52.60;;;;;;4824489;29;20263;-85
2022/05/03 12:15:42;;;;;;;12.27;3.20;;;15.60;53.30;;;;;;4825508;29;20192;-85
2022/05/03 12:18:39;;;;;;;14.23;3.30;;;15.80;52.60;;;;;;4825112;29;20179;-85
2022/05/03 12:21:29;;;;;;;8.90;2.85;;;15.50;53.00;;;;;;4825392;29;20165;-84
2022/05/03 12:24:05;;;;;;;10.63;2.60;;;15.50;53.60;;;;;;4825057;29;20160;-85
2022/05/03 12:26:39;;;;;;;9.05;2.67;;;15.50;51.90;;;;;;4825166;29;20520;-85
2022/05/03 12:29:05;;;;;;;17.02;3.35;;;15.10;53.40;;;;;;4824882;29;20200;-84
2022/05/03 12:31:36;;;;;;;12.07;2.72;;;15.20;52.90;;;;;;4825201;29;20187;-84
2022/05/03 12:34:14;;;;;;;12.80;2.78;;;15.20;51.90;;;;;;4825321;29;20543;-84
2022/05/03 12:36:41;;;;;;;12.10;2.33;;;15.50;53.80;;;;;;4825234;29;20249;-82
2022/05/03 12:39:10;;;;;;;14.67;2.87;;;15.30;51.20;;;;;;4825411;29;20587;-83
2022/05/03 12:41:36;;;;;;;12.10;3.55;;;14.90;53.30;;;;;;4825011;29;20192;-85
2022/05/03 12:44:10;;;;;;;11.13;3.23;;;15.70;52.30;;;;;;4825162;29;20264;-85
2022/05/03 12:46:36;;;;;;;11.47;2.90;;;15.80;50.20;;;;;;4808405;29;20263;-85
2022/05/03 12:49:09;;;;;;;13.57;3.15;;;15.70;50.30;;;;;;4824791;29;20199;-83
2022/05/03 12:51:36;;;;;;;12.88;3.35;;;16.10;49.30;;;;;;4825206;29;20188;-85
2022/05/03 12:54:04;;;;;;;14.95;3.25;;;16.20;49.80;;;;;;4825137;29;20184;-84
2022/05/03 12:59:14;;;;;;;12.95;2.90;;;15.40;50.40;;;;;;4825005;29;20677;-84
2022/05/03 13:01:41;;;;;;;12.38;3.20;;;15.60;49.00;;;;;;4825156;29;20647;-84
2022/05/03 13:04:08;;;;;;;14.47;3.40;;;15.90;48.30;;;;;;4825472;29;20537;-86
2022/05/03 13:06:34;;;;;;;15.63;2.88;;;15.90;50.50;;;;;;4827151;29;20168;-87
2022/05/03 13:09:00;;;;;;;9.73;2.33;;;15.70;49.10;;;;;;4825943;29;20200;-85
2022/05/03 13:11:25;;;;;;;10.82;2.40;;;15.20;51.20;;;;;;4825065;29;20706;-85
2022/05/03 13:13:51;;;;;;;11.48;2.60;;;16.00;48.10;;;;;;4825086;29;20188;-86
2022/05/03 13:16:16;;;;;;;19.45;3.00;;;15.80;49.10;;;;;;4825356;29;20215;-85
2022/05/03 13:18:44;;;;;;;18.75;3.08;;;15.90;50.30;;;;;;4826440;29;20232;-85
2022/05/03 13:21:10;;;;;;;18.77;3.20;;;16.10;48.30;;;;;;4825767;29;20176;-84
2022/05/03 13:23:35;;;;;;;13.18;3.35;;;16.20;46.30;;;;;;4828610;29;20183;-87
2022/05/03 13:26:01;;;;;;;13.18;2.78;;;15.90;48.00;;;;;;4829499;29;20317;-88
2022/05/03 13:28:28;;;;;;;13.70;2.95;;;15.90;49.10;;;;;;4829601;29;20184;-88
2022/05/03 13:30:54;;;;;;;12.50;2.92;;;15.70;47.20;;;;;;4829758;29;20204;-87
2022/05/03 13:33:20;;;;;;;11.82;2.75;;;16.00;49.40;;;;;;4814076;29;20236;-85
2022/05/03 13:41:13;;;;;;;13.80;3.15;;;15.20;50.50;;;;;;4829264;29;20256;-88
2022/05/03 13:43:39;;;;;;;17.13;3.65;;;15.80;48.60;;;;;;4813034;29;20270;-89
2022/05/03 13:46:05;;;;;;;17.27;3.10;;;16.20;48.20;;;;;;4829585;29;20176;-87